sensor_id;sensor_type;location;lat;lon;timestamp;P1;P2;P0
62591;PMS5003;48659;41.622;2.276;2022-08-20T00:00:17;9;6;
62591;PMS5003;48659;41.622;2.276;2022-08-20T00:02:48;6;6;
62591;PMS5003;48659;41.622;2.276;2022-08-20T00:05:19;9;7;
62591;PMS5003;48659;41.622;2.276;2022-08-20T00:07:50;5;5;
62591;PMS5003;48659;41.622;2.276;2022-08-20T00:10:18;4;4;
62591;PMS5003;48659;41.622;2.276;2022-08-20T00:12:46;8;8;
62591;PMS5003;48659;41.622;2.276;2022-08-20T00:15:15;6;6;
62591;PMS5003;48659;41.622;2.276;2022-08-20T00:17:44;6;6;
62591;PMS5003;48659;41.622;2.276;2022-08-20T00:20:19;8;7;
62591;PMS5003;48659;41.622;2.276;2022-08-20T00:22:48;6;6;
62591;PMS5003;48659;41.622;2.276;2022-08-20T00:25:16;9;6;
62591;PMS5003;48659;41.622;2.276;2022-08-20T00:27:45;7;7;
62591;PMS5003;48659;41.622;2.276;2022-08-20T00:30:16;10;9;
62591;PMS5003;48659;41.622;2.276;2022-08-20T00:32:45;6;6;
62591;PMS5003;48659;41.622;2.276;2022-08-20T00:35:17;8;7;
62591;PMS5003;48659;41.622;2.276;2022-08-20T00:37:47;9;9;
62591;PMS5003;48659;41.622;2.276;2022-08-20T00:40:17;8;6;
62591;PMS5003;48659;41.622;2.276;2022-08-20T00:42:47;5;5;
62591;PMS5003;48659;41.622;2.276;2022-08-20T00:45:16;6;6;
62591;PMS5003;48659;41.622;2.276;2022-08-20T00:47:45;5;5;
62591;PMS5003;48659;41.622;2.276;2022-08-20T00:50:13;7;7;
62591;PMS5003;48659;41.622;2.276;2022-08-20T00:52:44;5;5;
62591;PMS5003;48659;41.622;2.276;2022-08-20T00:55:15;7;7;
62591;PMS5003;48659;41.622;2.276;2022-08-20T00:57:44;7;6;
62591;PMS5003;48659;41.622;2.276;2022-08-20T01:00:18;6;6;
62591;PMS5003;48659;41.622;2.276;2022-08-20T01:02:47;5;4;
62591;PMS5003;48659;41.622;2.276;2022-08-20T01:05:15;7;6;
62591;PMS5003;48659;41.622;2.276;2022-08-20T01:07:43;5;5;
62591;PMS5003;48659;41.622;2.276;2022-08-20T01:10:13;6;6;
62591;PMS5003;48659;41.622;2.276;2022-08-20T01:12:43;5;5;
62591;PMS5003;48659;41.622;2.276;2022-08-20T01:15:14;9;6;
62591;PMS5003;48659;41.622;2.276;2022-08-20T01:17:45;7;6;
62591;PMS5003;48659;41.622;2.276;2022-08-20T01:20:16;7;6;
62591;PMS5003;48659;41.622;2.276;2022-08-20T01:22:48;8;5;
62591;PMS5003;48659;41.622;2.276;2022-08-20T01:25:28;5;5;
62591;PMS5003;48659;41.622;2.276;2022-08-20T01:28:02;5;4;
62591;PMS5003;48659;41.622;2.276;2022-08-20T01:30:29;7;6;
62591;PMS5003;48659;41.622;2.276;2022-08-20T01:32:58;6;6;
62591;PMS5003;48659;41.622;2.276;2022-08-20T01:35:26;4;4;
62591;PMS5003;48659;41.622;2.276;2022-08-20T01:37:54;5;5;
62591;PMS5003;48659;41.622;2.276;2022-08-20T01:40:37;4;4;
62591;PMS5003;48659;41.622;2.276;2022-08-20T01:43:22;5;5;
62591;PMS5003;48659;41.622;2.276;2022-08-20T01:45:50;5;5;
62591;PMS5003;48659;41.622;2.276;2022-08-20T01:48:19;5;5;
62591;PMS5003;48659;41.622;2.276;2022-08-20T01:50:50;6;5;
62591;PMS5003;48659;41.622;2.276;2022-08-20T01:53:27;6;4;
62591;PMS5003;48659;41.622;2.276;2022-08-20T01:55:58;5;5;
62591;PMS5003;48659;41.622;2.276;2022-08-20T01:58:26;6;6;
62591;PMS5003;48659;41.622;2.276;2022-08-20T02:00:54;4;4;
62591;PMS5003;48659;41.622;2.276;2022-08-20T02:03:21;5;5;
62591;PMS5003;48659;41.622;2.276;2022-08-20T02:05:49;4;4;
62591;PMS5003;48659;41.622;2.276;2022-08-20T02:08:16;3;3;
62591;PMS5003;48659;41.622;2.276;2022-08-20T02:10:43;5;5;
62591;PMS5003;48659;41.622;2.276;2022-08-20T02:13:16;5;4;
62591;PMS5003;48659;41.622;2.276;2022-08-20T02:15:44;5;5;
62591;PMS5003;48659;41.622;2.276;2022-08-20T02:18:12;5;5;
62591;PMS5003;48659;41.622;2.276;2022-08-20T02:20:41;5;5;
62591;PMS5003;48659;41.622;2.276;2022-08-20T02:23:10;5;5;
62591;PMS5003;48659;41.622;2.276;2022-08-20T02:25:38;6;5;
62591;PMS5003;48659;41.622;2.276;2022-08-20T02:28:10;4;4;
62591;PMS5003;48659;41.622;2.276;2022-08-20T02:30:43;6;6;
62591;PMS5003;48659;41.622;2.276;2022-08-20T02:33:15;5;5;
62591;PMS5003;48659;41.622;2.276;2022-08-20T02:35:45;3;3;
62591;PMS5003;48659;41.622;2.276;2022-08-20T02:38:15;5;5;
62591;PMS5003;48659;41.622;2.276;2022-08-20T02:40:43;5;4;
62591;PMS5003;48659;41.622;2.276;2022-08-20T02:43:11;7;5;
62591;PMS5003;48659;41.622;2.276;2022-08-20T02:45:39;3;3;
62591;PMS5003;48659;41.622;2.276;2022-08-20T02:48:08;5;5;
62591;PMS5003;48659;41.622;2.276;2022-08-20T02:50:37;7;7;
62591;PMS5003;48659;41.622;2.276;2022-08-20T02:53:09;8;7;
62591;PMS5003;48659;41.622;2.276;2022-08-20T02:55:36;5;5;
62591;PMS5003;48659;41.622;2.276;2022-08-20T02:58:03;5;5;
62591;PMS5003;48659;41.622;2.276;2022-08-20T03:00:31;5;5;
62591;PMS5003;48659;41.622;2.276;2022-08-20T03:02:59;3;3;
62591;PMS5003;48659;41.622;2.276;2022-08-20T03:05:27;6;6;
62591;PMS5003;48659;41.622;2.276;2022-08-20T03:07:55;5;5;
62591;PMS5003;48659;41.622;2.276;2022-08-20T03:10:23;5;5;
62591;PMS5003;48659;41.622;2.276;2022-08-20T03:12:52;5;4;
62591;PMS5003;48659;41.622;2.276;2022-08-20T03:15:19;5;5;
62591;PMS5003;48659;41.622;2.276;2022-08-20T03:17:48;6;6;
62591;PMS5003;48659;41.622;2.276;2022-08-20T03:20:15;4;4;
62591;PMS5003;48659;41.622;2.276;2022-08-20T03:22:42;8;8;
62591;PMS5003;48659;41.622;2.276;2022-08-20T03:25:10;9;7;
62591;PMS5003;48659;41.622;2.276;2022-08-20T03:27:38;7;7;
62591;PMS5003;48659;41.622;2.276;2022-08-20T03:30:06;5;4;
62591;PMS5003;48659;41.622;2.276;2022-08-20T03:32:36;10;8;
62591;PMS5003;48659;41.622;2.276;2022-08-20T03:35:05;9;9;
62591;PMS5003;48659;41.622;2.276;2022-08-20T03:37:35;8;8;
62591;PMS5003;48659;41.622;2.276;2022-08-20T03:40:04;11;11;
62591;PMS5003;48659;41.622;2.276;2022-08-20T03:42:36;7;7;
62591;PMS5003;48659;41.622;2.276;2022-08-20T03:45:04;11;9;
62591;PMS5003;48659;41.622;2.276;2022-08-20T03:47:32;9;8;
62591;PMS5003;48659;41.622;2.276;2022-08-20T03:50:00;8;8;
62591;PMS5003;48659;41.622;2.276;2022-08-20T03:52:29;9;9;
62591;PMS5003;48659;41.622;2.276;2022-08-20T03:54:57;9;8;
62591;PMS5003;48659;41.622;2.276;2022-08-20T03:57:24;7;7;
62591;PMS5003;48659;41.622;2.276;2022-08-20T03:59:51;10;8;
62591;PMS5003;48659;41.622;2.276;2022-08-20T04:02:19;10;10;
62591;PMS5003;48659;41.622;2.276;2022-08-20T04:04:47;11;11;
62591;PMS5003;48659;41.622;2.276;2022-08-20T04:07:15;10;10;
62591;PMS5003;48659;41.622;2.276;2022-08-20T04:09:45;11;11;
62591;PMS5003;48659;41.622;2.276;2022-08-20T04:12:16;12;10;
62591;PMS5003;48659;41.622;2.276;2022-08-20T04:14:44;12;12;
62591;PMS5003;48659;41.622;2.276;2022-08-20T04:17:16;11;11;
62591;PMS5003;48659;41.622;2.276;2022-08-20T04:19:47;11;11;
62591;PMS5003;48659;41.622;2.276;2022-08-20T04:22:17;9;9;
62591;PMS5003;48659;41.622;2.276;2022-08-20T04:24:44;10;8;
62591;PMS5003;48659;41.622;2.276;2022-08-20T04:27:11;9;9;
62591;PMS5003;48659;41.622;2.276;2022-08-20T04:29:39;12;10;
62591;PMS5003;48659;41.622;2.276;2022-08-20T04:32:19;11;11;
62591;PMS5003;48659;41.622;2.276;2022-08-20T04:34:46;9;9;
62591;PMS5003;48659;41.622;2.276;2022-08-20T04:37:18;10;10;
62591;PMS5003;48659;41.622;2.276;2022-08-20T04:39:46;9;9;
62591;PMS5003;48659;41.622;2.276;2022-08-20T04:42:14;10;10;
62591;PMS5003;48659;41.622;2.276;2022-08-20T04:44:41;8;8;
62591;PMS5003;48659;41.622;2.276;2022-08-20T04:47:08;9;9;
62591;PMS5003;48659;41.622;2.276;2022-08-20T04:49:36;9;9;
62591;PMS5003;48659;41.622;2.276;2022-08-20T04:52:03;13;11;
62591;PMS5003;48659;41.622;2.276;2022-08-20T04:54:31;11;9;
62591;PMS5003;48659;41.622;2.276;2022-08-20T04:56:58;9;9;
62591;PMS5003;48659;41.622;2.276;2022-08-20T04:59:25;9;9;
62591;PMS5003;48659;41.622;2.276;2022-08-20T05:01:53;11;10;
62591;PMS5003;48659;41.622;2.276;2022-08-20T05:04:19;10;10;
62591;PMS5003;48659;41.622;2.276;2022-08-20T05:06:47;11;10;
62591;PMS5003;48659;41.622;2.276;2022-08-20T05:09:14;10;8;
62591;PMS5003;48659;41.622;2.276;2022-08-20T05:11:41;10;10;
62591;PMS5003;48659;41.622;2.276;2022-08-20T05:14:08;12;9;
62591;PMS5003;48659;41.622;2.276;2022-08-20T05:16:36;9;9;
62591;PMS5003;48659;41.622;2.276;2022-08-20T05:19:04;11;11;
62591;PMS5003;48659;41.622;2.276;2022-08-20T05:21:33;8;8;
62591;PMS5003;48659;41.622;2.276;2022-08-20T05:24:00;8;8;
62591;PMS5003;48659;41.622;2.276;2022-08-20T05:26:27;12;10;
62591;PMS5003;48659;41.622;2.276;2022-08-20T05:28:53;11;10;
62591;PMS5003;48659;41.622;2.276;2022-08-20T05:31:21;7;7;
62591;PMS5003;48659;41.622;2.276;2022-08-20T05:33:48;10;9;
62591;PMS5003;48659;41.622;2.276;2022-08-20T05:36:15;13;11;
62591;PMS5003;48659;41.622;2.276;2022-08-20T05:38:43;12;10;
62591;PMS5003;48659;41.622;2.276;2022-08-20T05:41:10;8;8;
62591;PMS5003;48659;41.622;2.276;2022-08-20T05:43:37;9;9;
62591;PMS5003;48659;41.622;2.276;2022-08-20T05:46:04;7;7;
62591;PMS5003;48659;41.622;2.276;2022-08-20T05:48:32;7;7;
62591;PMS5003;48659;41.622;2.276;2022-08-20T05:50:59;8;7;
62591;PMS5003;48659;41.622;2.276;2022-08-20T05:53:26;8;8;
62591;PMS5003;48659;41.622;2.276;2022-08-20T05:55:54;8;8;
62591;PMS5003;48659;41.622;2.276;2022-08-20T05:58:22;9;9;
62591;PMS5003;48659;41.622;2.276;2022-08-20T06:00:51;9;9;
62591;PMS5003;48659;41.622;2.276;2022-08-20T06:03:20;11;9;
62591;PMS5003;48659;41.622;2.276;2022-08-20T06:05:47;11;11;
62591;PMS5003;48659;41.622;2.276;2022-08-20T06:08:16;12;10;
62591;PMS5003;48659;41.622;2.276;2022-08-20T06:10:44;12;11;
62591;PMS5003;48659;41.622;2.276;2022-08-20T06:13:15;13;10;
62591;PMS5003;48659;41.622;2.276;2022-08-20T06:15:43;10;10;
62591;PMS5003;48659;41.622;2.276;2022-08-20T06:18:10;10;10;
62591;PMS5003;48659;41.622;2.276;2022-08-20T06:20:37;10;9;
62591;PMS5003;48659;41.622;2.276;2022-08-20T06:23:05;13;12;
62591;PMS5003;48659;41.622;2.276;2022-08-20T06:25:33;11;11;
62591;PMS5003;48659;41.622;2.276;2022-08-20T06:28:00;10;10;
62591;PMS5003;48659;41.622;2.276;2022-08-20T06:30:29;9;9;
62591;PMS5003;48659;41.622;2.276;2022-08-20T06:32:56;13;13;
62591;PMS5003;48659;41.622;2.276;2022-08-20T06:35:24;13;13;
62591;PMS5003;48659;41.622;2.276;2022-08-20T06:37:52;12;9;
62591;PMS5003;48659;41.622;2.276;2022-08-20T06:40:21;11;11;
62591;PMS5003;48659;41.622;2.276;2022-08-20T06:42:50;11;11;
62591;PMS5003;48659;41.622;2.276;2022-08-20T06:45:19;15;13;
62591;PMS5003;48659;41.622;2.276;2022-08-20T06:47:49;11;9;
62591;PMS5003;48659;41.622;2.276;2022-08-20T06:50:18;13;11;
62591;PMS5003;48659;41.622;2.276;2022-08-20T06:52:47;10;10;
62591;PMS5003;48659;41.622;2.276;2022-08-20T06:55:15;11;11;
62591;PMS5003;48659;41.622;2.276;2022-08-20T06:57:43;9;9;
62591;PMS5003;48659;41.622;2.276;2022-08-20T07:00:12;10;9;
62591;PMS5003;48659;41.622;2.276;2022-08-20T07:02:42;10;8;
62591;PMS5003;48659;41.622;2.276;2022-08-20T07:05:10;10;10;
62591;PMS5003;48659;41.622;2.276;2022-08-20T07:07:37;9;9;
62591;PMS5003;48659;41.622;2.276;2022-08-20T07:10:06;10;10;
62591;PMS5003;48659;41.622;2.276;2022-08-20T07:12:35;10;10;
62591;PMS5003;48659;41.622;2.276;2022-08-20T07:15:03;11;9;
62591;PMS5003;48659;41.622;2.276;2022-08-20T07:17:33;7;7;
62591;PMS5003;48659;41.622;2.276;2022-08-20T07:20:02;14;13;
62591;PMS5003;48659;41.622;2.276;2022-08-20T07:22:30;11;11;
62591;PMS5003;48659;41.622;2.276;2022-08-20T07:24:57;11;11;
62591;PMS5003;48659;41.622;2.276;2022-08-20T07:27:24;10;10;
62591;PMS5003;48659;41.622;2.276;2022-08-20T07:29:51;11;10;
62591;PMS5003;48659;41.622;2.276;2022-08-20T07:32:18;13;10;
62591;PMS5003;48659;41.622;2.276;2022-08-20T07:34:46;12;10;
62591;PMS5003;48659;41.622;2.276;2022-08-20T07:37:13;13;11;
62591;PMS5003;48659;41.622;2.276;2022-08-20T07:39:40;11;11;
62591;PMS5003;48659;41.622;2.276;2022-08-20T07:42:07;14;13;
62591;PMS5003;48659;41.622;2.276;2022-08-20T07:42:16;14;12;
62591;PMS5003;48659;41.622;2.276;2022-08-20T07:44:45;13;11;
62591;PMS5003;48659;41.622;2.276;2022-08-20T07:47:12;11;11;
62591;PMS5003;48659;41.622;2.276;2022-08-20T07:49:39;13;13;
62591;PMS5003;48659;41.622;2.276;2022-08-20T07:52:07;13;12;
62591;PMS5003;48659;41.622;2.276;2022-08-20T07:54:35;14;12;
62591;PMS5003;48659;41.622;2.276;2022-08-20T07:57:02;17;16;
62591;PMS5003;48659;41.622;2.276;2022-08-20T07:59:31;15;15;
62591;PMS5003;48659;41.622;2.276;2022-08-20T08:01:58;10;10;
62591;PMS5003;48659;41.622;2.276;2022-08-20T08:04:25;14;12;
62591;PMS5003;48659;41.622;2.276;2022-08-20T08:06:52;14;13;
62591;PMS5003;48659;41.622;2.276;2022-08-20T08:09:21;12;11;
62591;PMS5003;48659;41.622;2.276;2022-08-20T08:11:48;11;11;
62591;PMS5003;48659;41.622;2.276;2022-08-20T08:14:18;9;8;
62591;PMS5003;48659;41.622;2.276;2022-08-20T08:16:49;9;9;
62591;PMS5003;48659;41.622;2.276;2022-08-20T08:19:20;10;10;
62591;PMS5003;48659;41.622;2.276;2022-08-20T08:21:47;8;8;
62591;PMS5003;48659;41.622;2.276;2022-08-20T08:24:15;9;9;
62591;PMS5003;48659;41.622;2.276;2022-08-20T08:26:43;7;7;
62591;PMS5003;48659;41.622;2.276;2022-08-20T08:29:10;14;11;
62591;PMS5003;48659;41.622;2.276;2022-08-20T08:31:37;9;9;
62591;PMS5003;48659;41.622;2.276;2022-08-20T08:34:05;42;39;
62591;PMS5003;48659;41.622;2.276;2022-08-20T08:36:32;11;11;
62591;PMS5003;48659;41.622;2.276;2022-08-20T08:39:00;10;8;
62591;PMS5003;48659;41.622;2.276;2022-08-20T08:41:28;12;10;
62591;PMS5003;48659;41.622;2.276;2022-08-20T08:44:00;12;11;
62591;PMS5003;48659;41.622;2.276;2022-08-20T08:46:34;8;8;
62591;PMS5003;48659;41.622;2.276;2022-08-20T08:49:04;9;7;
62591;PMS5003;48659;41.622;2.276;2022-08-20T08:51:36;7;7;
62591;PMS5003;48659;41.622;2.276;2022-08-20T08:54:07;7;7;
62591;PMS5003;48659;41.622;2.276;2022-08-20T08:56:40;8;7;
62591;PMS5003;48659;41.622;2.276;2022-08-20T08:59:08;9;7;
62591;PMS5003;48659;41.622;2.276;2022-08-20T09:01:40;9;9;
62591;PMS5003;48659;41.622;2.276;2022-08-20T09:04:09;8;8;
62591;PMS5003;48659;41.622;2.276;2022-08-20T09:06:36;8;8;
62591;PMS5003;48659;41.622;2.276;2022-08-20T09:09:04;8;8;
62591;PMS5003;48659;41.622;2.276;2022-08-20T09:11:44;8;7;
62591;PMS5003;48659;41.622;2.276;2022-08-20T09:14:12;11;9;
62591;PMS5003;48659;41.622;2.276;2022-08-20T09:16:41;9;8;
62591;PMS5003;48659;41.622;2.276;2022-08-20T09:19:16;9;8;
62591;PMS5003;48659;41.622;2.276;2022-08-20T09:21:44;13;13;
62591;PMS5003;48659;41.622;2.276;2022-08-20T09:24:12;12;9;
62591;PMS5003;48659;41.622;2.276;2022-08-20T09:26:39;8;8;
62591;PMS5003;48659;41.622;2.276;2022-08-20T09:29:06;6;6;
62591;PMS5003;48659;41.622;2.276;2022-08-20T09:31:34;5;5;
62591;PMS5003;48659;41.622;2.276;2022-08-20T09:34:02;7;7;
62591;PMS5003;48659;41.622;2.276;2022-08-20T09:36:30;7;7;
62591;PMS5003;48659;41.622;2.276;2022-08-20T09:38:58;5;5;
62591;PMS5003;48659;41.622;2.276;2022-08-20T09:41:25;8;7;
62591;PMS5003;48659;41.622;2.276;2022-08-20T09:43:52;4;4;
62591;PMS5003;48659;41.622;2.276;2022-08-20T09:46:19;5;4;
62591;PMS5003;48659;41.622;2.276;2022-08-20T09:48:45;4;4;
62591;PMS5003;48659;41.622;2.276;2022-08-20T09:51:13;8;7;
62591;PMS5003;48659;41.622;2.276;2022-08-20T09:53:40;7;7;
62591;PMS5003;48659;41.622;2.276;2022-08-20T09:56:08;16;15;
62591;PMS5003;48659;41.622;2.276;2022-08-20T09:58:36;4;4;
62591;PMS5003;48659;41.622;2.276;2022-08-20T10:01:10;6;4;
62591;PMS5003;48659;41.622;2.276;2022-08-20T10:03:40;3;3;
62591;PMS5003;48659;41.622;2.276;2022-08-20T10:06:08;4;4;
62591;PMS5003;48659;41.622;2.276;2022-08-20T10:08:45;3;3;
62591;PMS5003;48659;41.622;2.276;2022-08-20T10:11:13;3;3;
62591;PMS5003;48659;41.622;2.276;2022-08-20T10:13:41;4;3;
62591;PMS5003;48659;41.622;2.276;2022-08-20T10:16:09;3;3;
62591;PMS5003;48659;41.622;2.276;2022-08-20T10:18:36;4;4;
62591;PMS5003;48659;41.622;2.276;2022-08-20T10:21:07;5;5;
62591;PMS5003;48659;41.622;2.276;2022-08-20T10:23:35;3;3;
62591;PMS5003;48659;41.622;2.276;2022-08-20T10:26:02;3;3;
62591;PMS5003;48659;41.622;2.276;2022-08-20T10:28:30;1;1;
62591;PMS5003;48659;41.622;2.276;2022-08-20T10:30:57;3;3;
62591;PMS5003;48659;41.622;2.276;2022-08-20T10:33:24;3;3;
62591;PMS5003;48659;41.622;2.276;2022-08-20T10:35:52;3;3;
62591;PMS5003;48659;41.622;2.276;2022-08-20T10:38:19;6;3;
62591;PMS5003;48659;41.622;2.276;2022-08-20T10:40:47;4;4;
62591;PMS5003;48659;41.622;2.276;2022-08-20T10:43:14;2;2;
62591;PMS5003;48659;41.622;2.276;2022-08-20T10:45:42;5;5;
62591;PMS5003;48659;41.622;2.276;2022-08-20T10:48:17;3;3;
62591;PMS5003;48659;41.622;2.276;2022-08-20T10:50:44;4;4;
62591;PMS5003;48659;41.622;2.276;2022-08-20T10:53:11;3;3;
62591;PMS5003;48659;41.622;2.276;2022-08-20T10:55:39;3;3;
62591;PMS5003;48659;41.622;2.276;2022-08-20T10:58:07;2;2;
62591;PMS5003;48659;41.622;2.276;2022-08-20T11:00:35;4;4;
62591;PMS5003;48659;41.622;2.276;2022-08-20T11:03:03;2;2;
62591;PMS5003;48659;41.622;2.276;2022-08-20T11:05:31;3;3;
62591;PMS5003;48659;41.622;2.276;2022-08-20T11:08:00;5;3;
62591;PMS5003;48659;41.622;2.276;2022-08-20T11:10:30;3;3;
62591;PMS5003;48659;41.622;2.276;2022-08-20T11:12:58;3;3;
62591;PMS5003;48659;41.622;2.276;2022-08-20T11:15:27;4;3;
62591;PMS5003;48659;41.622;2.276;2022-08-20T11:17:55;4;2;
62591;PMS5003;48659;41.622;2.276;2022-08-20T11:20:23;5;2;
62591;PMS5003;48659;41.622;2.276;2022-08-20T11:22:51;3;3;
62591;PMS5003;48659;41.622;2.276;2022-08-20T11:25:19;3;2;
62591;PMS5003;48659;41.622;2.276;2022-08-20T11:27:48;2;2;
62591;PMS5003;48659;41.622;2.276;2022-08-20T11:30:18;1;1;
62591;PMS5003;48659;41.622;2.276;2022-08-20T11:32:48;2;2;
62591;PMS5003;48659;41.622;2.276;2022-08-20T11:35:15;2;2;
62591;PMS5003;48659;41.622;2.276;2022-08-20T11:37:43;2;2;
62591;PMS5003;48659;41.622;2.276;2022-08-20T11:40:11;4;3;
62591;PMS5003;48659;41.622;2.276;2022-08-20T11:42:38;5;4;
62591;PMS5003;48659;41.622;2.276;2022-08-20T11:45:05;4;3;
62591;PMS5003;48659;41.622;2.276;2022-08-20T11:47:34;4;3;
62591;PMS5003;48659;41.622;2.276;2022-08-20T11:50:03;4;4;
62591;PMS5003;48659;41.622;2.276;2022-08-20T11:52:34;8;8;
62591;PMS5003;48659;41.622;2.276;2022-08-20T11:55:03;4;4;
62591;PMS5003;48659;41.622;2.276;2022-08-20T11:57:32;2;2;
62591;PMS5003;48659;41.622;2.276;2022-08-20T12:00:03;8;8;
62591;PMS5003;48659;41.622;2.276;2022-08-20T12:02:33;8;5;
62591;PMS5003;48659;41.622;2.276;2022-08-20T12:05:01;8;7;
62591;PMS5003;48659;41.622;2.276;2022-08-20T12:07:28;3;3;
62591;PMS5003;48659;41.622;2.276;2022-08-20T12:09:56;3;3;
62591;PMS5003;48659;41.622;2.276;2022-08-20T12:12:24;3;3;
62591;PMS5003;48659;41.622;2.276;2022-08-20T12:14:52;4;2;
62591;PMS5003;48659;41.622;2.276;2022-08-20T12:17:22;4;4;
62591;PMS5003;48659;41.622;2.276;2022-08-20T12:19:53;4;4;
62591;PMS5003;48659;41.622;2.276;2022-08-20T12:22:22;3;3;
62591;PMS5003;48659;41.622;2.276;2022-08-20T12:24:49;6;5;
62591;PMS5003;48659;41.622;2.276;2022-08-20T12:27:18;6;5;
62591;PMS5003;48659;41.622;2.276;2022-08-20T12:29:48;5;4;
62591;PMS5003;48659;41.622;2.276;2022-08-20T12:32:17;6;5;
62591;PMS5003;48659;41.622;2.276;2022-08-20T12:34:45;6;4;
62591;PMS5003;48659;41.622;2.276;2022-08-20T12:37:12;5;5;
62591;PMS5003;48659;41.622;2.276;2022-08-20T12:39:43;7;5;
62591;PMS5003;48659;41.622;2.276;2022-08-20T12:42:12;7;5;
62591;PMS5003;48659;41.622;2.276;2022-08-20T12:44:41;4;4;
62591;PMS5003;48659;41.622;2.276;2022-08-20T12:47:10;5;5;
62591;PMS5003;48659;41.622;2.276;2022-08-20T12:49:38;5;5;
62591;PMS5003;48659;41.622;2.276;2022-08-20T12:52:08;4;4;
62591;PMS5003;48659;41.622;2.276;2022-08-20T12:54:36;5;5;
62591;PMS5003;48659;41.622;2.276;2022-08-20T12:57:04;5;4;
62591;PMS5003;48659;41.622;2.276;2022-08-20T12:59:33;5;5;
62591;PMS5003;48659;41.622;2.276;2022-08-20T13:02:00;5;5;
62591;PMS5003;48659;41.622;2.276;2022-08-20T13:04:26;5;5;
62591;PMS5003;48659;41.622;2.276;2022-08-20T13:06:58;6;5;
62591;PMS5003;48659;41.622;2.276;2022-08-20T13:09:31;7;6;
62591;PMS5003;48659;41.622;2.276;2022-08-20T13:11:59;4;4;
62591;PMS5003;48659;41.622;2.276;2022-08-20T13:14:26;6;6;
62591;PMS5003;48659;41.622;2.276;2022-08-20T13:16:55;6;5;
62591;PMS5003;48659;41.622;2.276;2022-08-20T13:19:22;6;6;
62591;PMS5003;48659;41.622;2.276;2022-08-20T13:21:50;4;4;
62591;PMS5003;48659;41.622;2.276;2022-08-20T13:24:18;4;4;
62591;PMS5003;48659;41.622;2.276;2022-08-20T13:26:46;6;4;
62591;PMS5003;48659;41.622;2.276;2022-08-20T13:29:13;7;7;
62591;PMS5003;48659;41.622;2.276;2022-08-20T13:31:41;3;3;
62591;PMS5003;48659;41.622;2.276;2022-08-20T13:34:09;5;5;
62591;PMS5003;48659;41.622;2.276;2022-08-20T13:36:36;6;5;
62591;PMS5003;48659;41.622;2.276;2022-08-20T13:39:04;4;3;
62591;PMS5003;48659;41.622;2.276;2022-08-20T13:41:33;5;5;
62591;PMS5003;48659;41.622;2.276;2022-08-20T13:44:00;4;4;
62591;PMS5003;48659;41.622;2.276;2022-08-20T13:46:29;5;5;
62591;PMS5003;48659;41.622;2.276;2022-08-20T13:48:56;5;5;
62591;PMS5003;48659;41.622;2.276;2022-08-20T13:51:23;4;4;
62591;PMS5003;48659;41.622;2.276;2022-08-20T13:53:51;6;5;
62591;PMS5003;48659;41.622;2.276;2022-08-20T13:56:17;6;6;
62591;PMS5003;48659;41.622;2.276;2022-08-20T13:58:45;6;4;
62591;PMS5003;48659;41.622;2.276;2022-08-20T14:01:12;6;6;
62591;PMS5003;48659;41.622;2.276;2022-08-20T14:03:40;6;6;
62591;PMS5003;48659;41.622;2.276;2022-08-20T14:06:07;6;6;
62591;PMS5003;48659;41.622;2.276;2022-08-20T14:08:41;5;5;
62591;PMS5003;48659;41.622;2.276;2022-08-20T14:11:13;6;6;
62591;PMS5003;48659;41.622;2.276;2022-08-20T14:13:40;5;5;
62591;PMS5003;48659;41.622;2.276;2022-08-20T14:16:07;9;8;
62591;PMS5003;48659;41.622;2.276;2022-08-20T14:18:35;7;7;
62591;PMS5003;48659;41.622;2.276;2022-08-20T14:21:01;4;4;
62591;PMS5003;48659;41.622;2.276;2022-08-20T14:23:29;6;6;
62591;PMS5003;48659;41.622;2.276;2022-08-20T14:25:56;6;6;
62591;PMS5003;48659;41.622;2.276;2022-08-20T14:28:23;7;7;
62591;PMS5003;48659;41.622;2.276;2022-08-20T14:30:51;6;6;
62591;PMS5003;48659;41.622;2.276;2022-08-20T14:33:18;8;7;
62591;PMS5003;48659;41.622;2.276;2022-08-20T14:35:46;12;11;
62591;PMS5003;48659;41.622;2.276;2022-08-20T14:38:14;8;8;
62591;PMS5003;48659;41.622;2.276;2022-08-20T14:40:41;8;8;
62591;PMS5003;48659;41.622;2.276;2022-08-20T14:43:09;6;6;
62591;PMS5003;48659;41.622;2.276;2022-08-20T14:45:37;7;7;
62591;PMS5003;48659;41.622;2.276;2022-08-20T14:48:05;8;8;
62591;PMS5003;48659;41.622;2.276;2022-08-20T14:50:34;7;7;
62591;PMS5003;48659;41.622;2.276;2022-08-20T14:53:03;6;6;
62591;PMS5003;48659;41.622;2.276;2022-08-20T14:55:32;7;7;
62591;PMS5003;48659;41.622;2.276;2022-08-20T14:58:00;6;6;
62591;PMS5003;48659;41.622;2.276;2022-08-20T15:00:33;7;7;
62591;PMS5003;48659;41.622;2.276;2022-08-20T15:03:00;6;6;
62591;PMS5003;48659;41.622;2.276;2022-08-20T15:05:28;6;6;
62591;PMS5003;48659;41.622;2.276;2022-08-20T15:07:56;8;7;
62591;PMS5003;48659;41.622;2.276;2022-08-20T15:10:24;5;5;
62591;PMS5003;48659;41.622;2.276;2022-08-20T15:12:54;8;6;
62591;PMS5003;48659;41.622;2.276;2022-08-20T15:15:22;7;7;
62591;PMS5003;48659;41.622;2.276;2022-08-20T15:17:50;9;7;
62591;PMS5003;48659;41.622;2.276;2022-08-20T15:20:21;7;7;
62591;PMS5003;48659;41.622;2.276;2022-08-20T15:22:53;8;8;
62591;PMS5003;48659;41.622;2.276;2022-08-20T15:25:22;8;8;
62591;PMS5003;48659;41.622;2.276;2022-08-20T15:27:54;7;7;
62591;PMS5003;48659;41.622;2.276;2022-08-20T15:30:22;10;10;
62591;PMS5003;48659;41.622;2.276;2022-08-20T15:32:50;7;7;
62591;PMS5003;48659;41.622;2.276;2022-08-20T15:35:18;6;6;
62591;PMS5003;48659;41.622;2.276;2022-08-20T15:37:46;5;5;
62591;PMS5003;48659;41.622;2.276;2022-08-20T15:40:16;6;6;
62591;PMS5003;48659;41.622;2.276;2022-08-20T15:42:46;7;7;
62591;PMS5003;48659;41.622;2.276;2022-08-20T15:45:15;6;6;
62591;PMS5003;48659;41.622;2.276;2022-08-20T15:47:50;7;6;
62591;PMS5003;48659;41.622;2.276;2022-08-20T15:50:32;6;6;
62591;PMS5003;48659;41.622;2.276;2022-08-20T15:53:11;4;4;
62591;PMS5003;48659;41.622;2.276;2022-08-20T15:55:45;5;5;
62591;PMS5003;48659;41.622;2.276;2022-08-20T15:58:22;6;5;
62591;PMS5003;48659;41.622;2.276;2022-08-20T16:00:55;6;4;
62591;PMS5003;48659;41.622;2.276;2022-08-20T16:03:33;9;7;
62591;PMS5003;48659;41.622;2.276;2022-08-20T16:06:14;9;7;
62591;PMS5003;48659;41.622;2.276;2022-08-20T16:08:54;5;5;
62591;PMS5003;48659;41.622;2.276;2022-08-20T16:11:30;6;6;
62591;PMS5003;48659;41.622;2.276;2022-08-20T16:14:08;9;8;
62591;PMS5003;48659;41.622;2.276;2022-08-20T16:16:41;5;5;
62591;PMS5003;48659;41.622;2.276;2022-08-20T16:19:13;6;4;
62591;PMS5003;48659;41.622;2.276;2022-08-20T16:21:46;6;6;
62591;PMS5003;48659;41.622;2.276;2022-08-20T16:24:16;6;6;
62591;PMS5003;48659;41.622;2.276;2022-08-20T16:26:51;5;5;
62591;PMS5003;48659;41.622;2.276;2022-08-20T16:29:30;5;5;
62591;PMS5003;48659;41.622;2.276;2022-08-20T16:32:09;6;6;
62591;PMS5003;48659;41.622;2.276;2022-08-20T16:34:51;4;4;
62591;PMS5003;48659;41.622;2.276;2022-08-20T16:37:23;5;5;
62591;PMS5003;48659;41.622;2.276;2022-08-20T16:40:02;5;5;
62591;PMS5003;48659;41.622;2.276;2022-08-20T16:42:48;6;5;
62591;PMS5003;48659;41.622;2.276;2022-08-20T16:45:19;5;5;
62591;PMS5003;48659;41.622;2.276;2022-08-20T16:47:50;5;5;
62591;PMS5003;48659;41.622;2.276;2022-08-20T16:50:21;5;4;
62591;PMS5003;48659;41.622;2.276;2022-08-20T16:52:51;7;5;